createdAt,value
2018-11-13T00:03:28.192Z,205.00
2018-11-13T00:11:50.353Z,218.00
2018-11-13T00:15:57.512Z,210.77
2018-11-13T00:20:03.792Z,208.07
2018-11-13T00:24:10.352Z,217.80
2018-11-13T00:28:17.904Z,200.03
2018-11-13T00:32:29.979Z,198.63
2018-11-13T00:36:36.190Z,190.53
2018-11-13T00:40:43.824Z,209.47
2018-11-13T00:44:50.127Z,194.07
2018-11-13T00:48:56.861Z,188.23
2018-11-13T00:53:23.218Z,200.33
2018-11-13T00:57:29.651Z,166.83
2018-11-13T01:01:35.857Z,187.70
2018-11-13T01:06:02.345Z,184.13
2018-11-13T01:10:10.149Z,175.77
2018-11-13T01:14:16.465Z,180.83
2018-11-13T01:18:23.758Z,178.20
2018-11-13T01:22:30.353Z,173.93
2018-11-13T01:26:37.550Z,162.03
2018-11-13T01:30:43.915Z,174.43
2018-11-13T01:34:50.294Z,176.07
2018-11-13T01:38:56.831Z,168.83
2018-11-13T01:43:03.737Z,164.00
2018-11-13T01:47:10.525Z,157.40
2018-11-13T01:51:17.003Z,168.87
2018-11-13T01:55:45.471Z,163.20
2018-11-13T01:59:52.120Z,160.40
2018-11-13T02:03:58.479Z,148.57
2018-11-13T02:08:07.815Z,164.10
2018-11-13T02:12:14.078Z,168.07
2018-11-13T02:20:27.680Z,160.13
2018-11-13T02:24:34.346Z,164.50
2018-11-13T02:28:45.293Z,161.30
2018-11-13T02:32:51.746Z,152.93
2018-11-13T02:36:58.867Z,150.50
2018-11-13T02:41:25.635Z,145.23
2018-11-13T02:45:32.231Z,157.27
2018-11-13T02:49:38.600Z,161.27
2018-11-13T02:53:46.506Z,154.10
2018-11-13T02:57:52.798Z,156.23
2018-11-13T03:01:59.235Z,156.60
2018-11-13T03:06:26.487Z,163.97
2018-11-13T03:10:32.806Z,159.90
2018-11-13T03:14:39.207Z,159.43
2018-11-13T03:19:06.626Z,156.63
2018-11-13T03:23:14.377Z,163.40
2018-11-13T03:27:22.544Z,145.23
2018-11-13T03:31:29.034Z,151.63
2018-11-13T03:35:35.377Z,154.80
2018-11-13T03:39:43.648Z,158.93
2018-11-13T03:43:50.131Z,155.07
2018-11-13T03:47:56.519Z,149.57
2018-11-13T03:52:04.359Z,150.67
2018-11-13T03:56:10.698Z,155.67
2018-11-13T04:00:35.832Z,161.77
2018-11-13T04:04:43.887Z,151.17
2018-11-13T04:08:52.033Z,152.43
2018-11-13T04:12:58.699Z,147.83
2018-11-13T04:17:08.123Z,160.67
2018-11-13T04:21:16.678Z,160.60
2018-11-13T04:25:24.476Z,145.53
2018-11-13T04:29:33.229Z,151.93
2018-11-13T04:33:40.085Z,149.37
2018-11-13T04:37:47.651Z,157.73
2018-11-13T04:41:54.483Z,156.93
2018-11-13T04:46:01.259Z,150.70
2018-11-13T04:50:09.069Z,163.83
2018-11-13T04:54:15.635Z,164.63
2018-11-13T04:58:24.699Z,158.47
2018-11-13T05:02:31.109Z,155.40
2018-11-13T05:06:37.610Z,160.70
2018-11-13T05:10:43.868Z,144.17
2018-11-13T05:15:11.688Z,162.03
2018-11-13T05:19:18.065Z,155.93
2018-11-13T05:23:24.481Z,141.60
2018-11-13T05:27:31.911Z,171.97
2018-11-13T05:31:38.346Z,154.50
2018-11-13T05:35:44.752Z,165.33
2018-11-13T05:39:52.087Z,152.00
2018-11-13T05:43:58.968Z,145.90
2018-11-13T05:48:12.404Z,151.03
2018-11-13T05:52:20.830Z,154.77
2018-11-13T05:56:27.294Z,158.53
2018-11-13T06:00:34.589Z,151.63
2018-11-13T06:04:41.515Z,172.77
2018-11-13T06:08:47.864Z,156.23
2018-11-13T06:12:56.884Z,160.73
2018-11-13T06:17:03.252Z,148.03
2018-11-13T06:21:09.809Z,163.27
2018-11-13T06:25:17.819Z,155.50
2018-11-13T06:29:27.113Z,159.77
2018-11-13T06:33:32.366Z,152.97
2018-11-13T06:37:39.318Z,137.07
2018-11-13T06:41:45.674Z,146.93
2018-11-13T06:45:54.713Z,146.80
2018-11-13T06:50:00.953Z,139.07
2018-11-13T06:54:45.317Z,138.97
2018-11-13T06:58:52.221Z,154.43
2018-11-13T07:02:59.725Z,149.53
2018-11-13T07:07:06.029Z,138.93
2018-11-13T07:11:12.409Z,141.10
2018-11-13T07:15:25.650Z,143.27
2018-11-13T07:19:32.629Z,136.90
2018-11-13T07:23:38.667Z,148.10
2018-11-13T07:27:45.551Z,144.23
2018-11-13T07:31:51.814Z,148.53
2018-11-13T07:35:59.420Z,137.63
2018-11-13T07:40:07.780Z,144.20
2018-11-13T07:48:25.197Z,154.47
2018-11-13T07:52:32.544Z,140.73
2018-11-13T07:56:39.895Z,137.37
2018-11-13T08:00:46.473Z,134.77
2018-11-13T08:04:52.801Z,131.60
2018-11-13T08:08:59.577Z,131.43
2018-11-13T08:13:07.364Z,128.53
2018-11-13T08:17:13.722Z,134.37
2018-11-13T08:21:20.839Z,136.73
2018-11-13T08:25:27.797Z,126.53
2018-11-13T08:29:34.455Z,133.53
2018-11-13T08:33:43.109Z,137.80
2018-11-13T08:37:49.991Z,135.13
2018-11-13T08:41:59.918Z,123.57
2018-11-13T08:46:06.515Z,126.40
2018-11-13T08:50:14.309Z,119.30
2018-11-13T08:54:41.183Z,128.67
2018-11-13T08:58:48.211Z,125.60
2018-11-13T09:02:54.700Z,119.27
2018-11-13T09:07:04.211Z,113.77
2018-11-13T09:11:10.820Z,122.50
2018-11-13T09:15:39.457Z,114.23
2018-11-13T09:19:45.898Z,120.90
2018-11-13T09:23:52.233Z,125.10
2018-11-13T09:27:58.509Z,126.83
2018-11-13T09:32:07.038Z,115.70
2018-11-13T09:36:13.505Z,111.03
2018-11-13T09:40:23.236Z,117.77
2018-11-13T09:44:31.095Z,116.40
2018-11-13T09:48:39.770Z,113.07
2018-11-13T09:52:48.745Z,102.10
2018-11-13T09:56:55.687Z,116.47
2018-11-13T10:01:05.990Z,121.70
2018-11-13T10:05:13.239Z,125.83
2018-11-13T10:09:18.718Z,130.67
2018-11-13T10:13:27.550Z,130.57
2018-11-13T10:17:34.593Z,119.43
2018-11-13T10:21:42.773Z,116.03
2018-11-13T10:25:50.274Z,114.57
2018-11-13T10:29:56.704Z,108.47
2018-11-13T10:34:03.947Z,116.33
2018-11-13T10:38:10.518Z,108.80
2018-11-13T10:42:17.089Z,104.43
2018-11-13T10:46:24.640Z,110.00
2018-11-13T10:50:30.936Z,99.27
2018-11-13T10:54:38.771Z,96.37
2018-11-13T10:58:46.926Z,95.40
2018-11-13T11:03:11.896Z,105.53
2018-11-13T11:07:18.214Z,89.77
2018-11-13T11:11:28.124Z,89.07
2018-11-13T11:15:34.307Z,92.70
2018-11-13T11:23:49.290Z,98.03
2018-11-13T11:27:55.868Z,107.87
2018-11-13T11:32:02.695Z,95.13
2018-11-13T11:36:08.968Z,92.03
2018-11-13T11:40:15.202Z,108.47
2018-11-13T11:44:22.687Z,103.77
2018-11-13T11:48:28.952Z,100.93
2018-11-13T11:52:35.362Z,94.07
2018-11-13T11:56:47.266Z,105.30
2018-11-13T12:00:53.851Z,96.60
2018-11-13T12:05:01.539Z,106.37
2018-11-13T12:09:10.171Z,99.97
2018-11-13T12:13:19.130Z,101.03
2018-11-13T12:17:25.493Z,99.33
2018-11-13T12:21:32.946Z,104.53
2018-11-13T12:25:39.385Z,101.63
2018-11-13T12:29:45.672Z,105.77
2018-11-13T12:33:53.940Z,114.67
2018-11-13T12:38:02.539Z,115.00
2018-11-13T12:42:14.436Z,120.53
2018-11-13T12:46:21.631Z,118.63
2018-11-13T12:50:32.727Z,108.23
2018-11-13T12:54:40.472Z,127.83
2018-11-13T12:58:47.815Z,128.77
2018-11-13T13:02:54.107Z,121.07
2018-11-13T13:07:21.802Z,124.47
2018-11-13T13:11:28.346Z,111.67
2018-11-13T13:15:34.628Z,116.37
2018-11-13T13:19:41.357Z,119.00
2018-11-13T13:23:47.820Z,113.27
2018-11-13T13:27:54.496Z,108.93
2018-11-13T13:32:23.398Z,108.07
2018-11-13T13:36:29.657Z,125.50
2018-11-13T13:44:44.670Z,115.47
2018-11-13T13:48:51.118Z,118.67
2018-11-13T13:52:57.860Z,113.67
2018-11-13T13:57:04.871Z,123.40
2018-11-13T14:01:11.878Z,115.97
2018-11-13T14:05:19.335Z,112.03
2018-11-13T14:09:26.033Z,124.37
2018-11-13T14:13:33.027Z,121.87
2018-11-13T14:17:42.095Z,127.50
2018-11-13T14:21:48.457Z,131.17
2018-11-13T14:25:54.805Z,131.07
2018-11-13T14:30:01.666Z,133.50
2018-11-13T14:34:07.913Z,131.63
2018-11-13T14:38:14.479Z,123.27
2018-11-13T14:42:21.873Z,126.50
2018-11-13T14:46:29.026Z,129.13
2018-11-13T14:50:35.739Z,122.50
2018-11-13T14:54:48.544Z,125.30
2018-11-13T14:58:55.513Z,126.60
2018-11-13T15:03:03.581Z,128.87
2018-11-13T15:07:10.120Z,121.17
2018-11-13T15:11:56.667Z,128.23
2018-11-13T15:16:04.903Z,130.90
2018-11-13T15:20:26.485Z,127.33
2018-11-13T15:24:34.466Z,139.77
2018-11-13T15:28:43.771Z,135.93
2018-11-13T15:32:56.492Z,137.83
2018-11-13T15:37:02.916Z,138.67
2018-11-13T15:41:10.522Z,138.77
2018-11-13T15:45:17.663Z,132.90
2018-11-13T15:49:24.137Z,149.73
2018-11-13T15:53:30.477Z,133.53
2018-11-13T15:57:37.933Z,134.33
2018-11-13T16:01:44.164Z,138.03
2018-11-13T16:05:58.084Z,127.60
2018-11-13T16:10:04.435Z,152.10
2018-11-13T16:14:11.361Z,142.93
2018-11-13T16:18:26.741Z,137.53
2018-11-13T16:22:35.057Z,142.60
2018-11-13T16:26:39.672Z,142.00
2018-11-13T16:30:46.728Z,137.87
2018-11-13T16:34:55.095Z,137.30
2018-11-13T16:39:13.699Z,145.00
2018-11-13T16:43:23.566Z,148.97
2018-11-13T16:47:30.174Z,149.70
2018-11-13T16:51:37.730Z,149.80
2018-11-13T16:56:03.217Z,160.17
2018-11-13T17:00:13.874Z,157.37
2018-11-13T17:04:20.602Z,159.27
2018-11-13T17:08:28.024Z,154.73
2018-11-13T17:12:34.403Z,155.43
2018-11-13T17:16:40.955Z,153.70
2018-11-13T17:20:47.797Z,155.73
2018-11-13T17:25:00.016Z,164.17
2018-11-13T17:29:06.342Z,153.17
2018-11-13T17:33:15.164Z,144.50
2018-11-13T17:37:22.635Z,155.40
2018-11-13T17:41:28.991Z,141.10
2018-11-13T17:45:39.718Z,148.23
2018-11-13T17:49:49.193Z,146.13
2018-11-13T17:53:55.158Z,135.00
2018-11-13T17:58:04.014Z,143.20
2018-11-13T18:02:12.081Z,145.87
2018-11-13T18:06:19.463Z,152.93
2018-11-13T18:10:27.168Z,151.57
2018-11-13T18:14:34.712Z,146.57
2018-11-13T18:18:43.474Z,128.00
2018-11-13T18:22:49.977Z,128.13
2018-11-13T18:26:56.817Z,112.13
2018-11-13T18:31:03.302Z,104.90
2018-11-13T18:35:13.066Z,106.07
2018-11-13T18:39:23.629Z,110.90
2018-11-13T18:43:32.122Z,108.47
2018-11-13T18:47:38.963Z,101.07
2018-11-13T18:51:45.487Z,110.90
2018-11-13T18:56:10.657Z,94.37
2018-11-13T19:00:22.795Z,96.77
2018-11-13T19:04:30.632Z,76.93
2018-11-13T19:08:37.518Z,76.93
2018-11-13T19:12:44.424Z,85.60
2018-11-13T19:16:51.533Z,76.30
2018-11-13T19:20:57.779Z,70.63
2018-11-13T19:25:04.207Z,78.77
2018-11-13T19:29:10.559Z,97.23
2018-11-13T19:33:17.700Z,82.33
2018-11-13T19:37:24.182Z,99.77
2018-11-13T19:41:31.443Z,76.47
2018-11-13T19:45:38.047Z,86.97
2018-11-13T19:49:44.444Z,91.87
2018-11-13T19:53:53.275Z,79.43
2018-11-13T19:58:15.641Z,85.67
2018-11-13T20:02:35.349Z,84.57
2018-11-13T20:06:44.095Z,78.63
2018-11-13T20:10:53.637Z,70.63
2018-11-13T20:15:01.708Z,76.47
2018-11-13T20:19:08.033Z,83.37
2018-11-13T20:23:14.830Z,84.40
2018-11-13T20:37:04.927Z,80.27
2018-11-13T20:41:11.542Z,95.20
2018-11-13T20:45:18.498Z,67.37
2018-11-13T20:49:24.454Z,87.70
2018-11-13T20:53:32.132Z,82.73
2018-11-13T20:57:38.816Z,87.43
2018-11-13T21:01:54.754Z,94.03
2018-11-13T21:06:06.625Z,90.93
2018-11-13T21:14:33.426Z,85.37
2018-11-13T21:18:48.328Z,96.67
2018-11-13T21:22:56.800Z,73.10
2018-11-13T21:31:15.911Z,78.33
2018-11-13T21:35:25.808Z,81.83
2018-11-13T21:39:34.031Z,89.10
2018-11-13T21:43:39.119Z,77.27
2018-11-13T21:47:46.820Z,73.53
2018-11-13T21:51:53.414Z,60.57
2018-11-13T21:55:59.629Z,53.93
2018-11-13T22:04:32.354Z,63.73
2018-11-13T22:08:40.096Z,60.93
2018-11-13T22:12:47.961Z,66.30
2018-11-13T22:16:54.572Z,51.70
2018-11-13T22:21:01.887Z,61.30
2018-11-13T22:25:13.440Z,59.27
2018-11-13T22:29:19.495Z,63.77
2018-11-13T22:33:30.021Z,58.13
2018-11-13T22:37:36.567Z,53.30
2018-11-13T22:41:43.346Z,58.37
2018-11-13T22:45:49.388Z,59.60
2018-11-13T22:49:55.907Z,53.93
2018-11-13T22:54:02.203Z,54.90
2018-11-13T22:58:10.600Z,60.07
2018-11-13T23:02:18.419Z,53.23
2018-11-13T23:06:25.077Z,59.90
2018-11-13T23:10:31.131Z,60.73
2018-11-13T23:14:38.920Z,59.53
2018-11-13T23:18:48.124Z,57.90
2018-11-13T23:22:56.551Z,60.67
2018-11-13T23:27:03.924Z,62.47
2018-11-13T23:31:12.275Z,57.50
2018-11-13T23:35:18.630Z,50.73
2018-11-13T23:39:25.235Z,64.93
2018-11-13T23:43:31.359Z,56.63
2018-11-13T23:47:40.974Z,57.03
2018-11-13T23:51:47.966Z,65.10
2018-11-13T23:55:55.178Z,58.07
